Time;durP1;ratioP1;P1;durP2;ratioP2;P2;SDS_P1;SDS_P2;PMS_P1;PMS_P2;Temp;Humidity;BMP_temperature;BMP_pressure;BME280_temperature;BME280_humidity;BME280_pressure;Samples;Min_cycle;Max_cycle;Signal;HPM_P1;HPM_P2
2021/01/08 00:02:14;;;;;;;33.30;25.43;;;;;;;;;;125364;1127;24389;-76
2021/01/08 00:04:42;;;;;;;32.67;23.47;;;;;;;;;;125385;1129;22454;-77
2021/01/08 00:07:11;;;;;;;31.35;23.35;;;;;;;;;;125588;1129;22465;-75
2021/01/08 00:09:39;;;;;;;31.60;24.25;;;;;;;;;;125404;1127;22445;-78
2021/01/08 00:12:08;;;;;;;29.70;22.20;;;;;;;;;;125101;1129;22439;-76
2021/01/08 00:14:36;;;;;;;29.35;20.48;;;;;;;;;;125384;1130;22438;-75
2021/01/08 00:17:05;;;;;;;28.15;21.00;;;;;;;;;;125403;1127;22449;-75
2021/01/08 00:19:34;;;;;;;29.00;20.48;;;;;;;;;;125387;1130;22439;-75
2021/01/08 00:22:02;;;;;;;28.37;20.73;;;;;;;;;;125366;1129;22503;-75
2021/01/08 00:24:30;;;;;;;29.07;19.90;;;;;;;;;;125383;1127;22494;-76
2021/01/08 00:27:03;;;;;;;27.62;20.50;;;;;;;;;;125360;1131;22462;-76
2021/01/08 00:29:31;;;;;;;28.83;20.17;;;;;;;;;;125317;1127;22555;-76
2021/01/08 00:31:59;;;;;;;28.87;22.17;;;;;;;;;;125635;1127;23311;-77
2021/01/08 00:34:28;;;;;;;33.65;22.85;;;;;;;;;;125651;1127;23237;-77
2021/01/08 00:36:56;;;;;;;31.80;22.95;;;;;;;;;;125608;1127;22457;-77
2021/01/08 00:39:27;;;;;;;32.73;22.40;;;;;;;;;;125633;1127;22459;-77
2021/01/08 00:41:55;;;;;;;38.13;20.80;;;;;;;;;;125558;1127;23313;-76
2021/01/08 00:44:24;;;;;;;30.68;21.25;;;;;;;;;;125376;1127;22445;-76
2021/01/08 00:46:52;;;;;;;27.25;19.90;;;;;;;;;;125374;1127;24307;-76
2021/01/08 00:49:20;;;;;;;29.75;19.07;;;;;;;;;;125610;1128;22460;-76
2021/01/08 00:51:49;;;;;;;29.10;20.72;;;;;;;;;;125647;1127;22447;-75
2021/01/08 00:54:18;;;;;;;29.30;20.27;;;;;;;;;;125366;1131;22440;-76
2021/01/08 00:56:53;;;;;;;28.42;20.75;;;;;;;;;;125646;1127;22457;-77
2021/01/08 00:59:34;;;;;;;29.63;21.55;;;;;;;;;;125431;1127;24306;-75
2021/01/08 01:02:02;;;;;;;32.90;21.57;;;;;;;;;;125328;1127;22447;-75
2021/01/08 01:04:31;;;;;;;29.87;20.68;;;;;;;;;;125455;1130;22460;-76
2021/01/08 01:07:00;;;;;;;26.20;18.23;;;;;;;;;;125409;1127;22445;-76
2021/01/08 01:09:28;;;;;;;26.87;18.50;;;;;;;;;;125327;1127;22460;-76
2021/01/08 01:11:56;;;;;;;28.83;21.35;;;;;;;;;;125362;1127;22545;-75
2021/01/08 01:14:24;;;;;;;29.63;20.40;;;;;;;;;;125339;1127;22678;-75
2021/01/08 01:16:53;;;;;;;29.52;21.80;;;;;;;;;;125640;1127;22460;-75
2021/01/08 01:19:21;;;;;;;27.07;21.60;;;;;;;;;;125341;1130;22462;-75
2021/01/08 01:21:49;;;;;;;30.20;21.95;;;;;;;;;;125409;1127;24824;-75
2021/01/08 01:24:17;;;;;;;32.35;22.07;;;;;;;;;;125376;1127;24592;-75
2021/01/08 01:26:45;;;;;;;30.97;23.42;;;;;;;;;;125399;1130;22465;-76
2021/01/08 01:29:13;;;;;;;30.37;23.62;;;;;;;;;;125419;1127;22642;-75
2021/01/08 01:31:41;;;;;;;36.75;25.65;;;;;;;;;;125613;1127;22450;-75
2021/01/08 01:34:09;;;;;;;35.08;24.20;;;;;;;;;;125391;1127;22461;-75
2021/01/08 01:36:37;;;;;;;30.52;22.75;;;;;;;;;;125402;1127;22441;-76
2021/01/08 01:39:06;;;;;;;32.28;23.50;;;;;;;;;;125358;1127;22454;-75
2021/01/08 01:41:34;;;;;;;37.05;24.60;;;;;;;;;;125360;1127;22442;-75
2021/01/08 01:44:02;;;;;;;32.80;23.55;;;;;;;;;;125357;1130;22456;-76
2021/01/08 01:46:30;;;;;;;28.50;22.48;;;;;;;;;;125386;1127;22545;-76
2021/01/08 01:48:59;;;;;;;31.35;23.95;;;;;;;;;;125422;1127;22447;-76
2021/01/08 01:51:27;;;;;;;29.52;21.52;;;;;;;;;;125640;1127;24559;-76
2021/01/08 01:53:56;;;;;;;34.33;22.25;;;;;;;;;;125686;1127;22501;-76
2021/01/08 01:56:24;;;;;;;26.87;19.75;;;;;;;;;;125605;1127;23170;-76
2021/01/08 01:58:52;;;;;;;27.15;18.75;;;;;;;;;;125362;1129;22443;-76
2021/01/08 02:01:20;;;;;;;27.07;19.60;;;;;;;;;;125683;1127;22460;-76
2021/01/08 02:03:56;;;;;;;27.45;19.98;;;;;;;;;;125381;1128;22800;-76
2021/01/08 02:06:32;;;;;;;25.17;19.42;;;;;;;;;;125616;1127;22441;-75
2021/01/08 02:09:09;;;;;;;28.50;20.82;;;;;;;;;;125386;1127;24288;-76
2021/01/08 02:11:39;;;;;;;29.42;21.57;;;;;;;;;;125394;1127;24291;-75
2021/01/08 02:14:16;;;;;;;29.30;20.90;;;;;;;;;;125392;1127;24383;-75
2021/01/08 02:16:45;;;;;;;25.55;20.88;;;;;;;;;;125352;1127;22466;-75
2021/01/08 02:19:32;;;;;;;29.90;22.73;;;;;;;;;;125317;1127;22440;-75
2021/01/08 02:22:08;;;;;;;29.95;22.62;;;;;;;;;;125384;1127;22472;-75
2021/01/08 02:24:41;;;;;;;32.63;22.40;;;;;;;;;;125401;1127;22451;-76
2021/01/08 02:27:09;;;;;;;30.90;21.82;;;;;;;;;;125370;1127;24575;-75
2021/01/08 02:29:37;;;;;;;26.20;20.23;;;;;;;;;;125664;1127;22502;-75
2021/01/08 02:32:06;;;;;;;26.42;20.65;;;;;;;;;;125359;1127;22628;-75
2021/01/08 02:34:34;;;;;;;26.05;19.23;;;;;;;;;;125354;1127;22619;-75
2021/01/08 02:37:02;;;;;;;27.75;19.98;;;;;;;;;;125383;1127;24303;-76
2021/01/08 02:39:31;;;;;;;26.97;19.42;;;;;;;;;;125339;1127;22435;-75
2021/01/08 02:42:00;;;;;;;24.72;18.15;;;;;;;;;;125346;1129;22466;-75
2021/01/08 02:44:28;;;;;;;25.75;18.90;;;;;;;;;;125326;1127;23473;-75
2021/01/08 02:46:56;;;;;;;25.52;20.02;;;;;;;;;;125343;1127;24582;-75
2021/01/08 02:49:24;;;;;;;25.92;19.73;;;;;;;;;;125374;1127;24312;-75
2021/01/08 02:51:52;;;;;;;28.05;19.87;;;;;;;;;;125391;1127;22447;-75
2021/01/08 02:54:21;;;;;;;28.60;20.62;;;;;;;;;;125377;1130;22533;-75
2021/01/08 02:56:52;;;;;;;29.37;22.50;;;;;;;;;;125330;1127;22447;-75
2021/01/08 02:59:22;;;;;;;36.15;27.80;;;;;;;;;;125370;1130;22460;-75
2021/01/08 03:01:50;;;;;;;32.13;23.10;;;;;;;;;;125449;1127;22450;-75
2021/01/08 03:04:18;;;;;;;28.15;22.80;;;;;;;;;;125342;1127;24303;-75
2021/01/08 03:06:47;;;;;;;32.13;22.00;;;;;;;;;;125395;1127;24568;-76
2021/01/08 03:09:16;;;;;;;27.52;22.22;;;;;;;;;;125353;1130;22459;-75
2021/01/08 03:11:52;;;;;;;33.33;25.37;;;;;;;;;;125357;1127;22447;-75
2021/01/08 03:14:21;;;;;;;31.60;25.02;;;;;;;;;;125470;1127;22443;-75
2021/01/08 03:16:49;;;;;;;31.63;24.10;;;;;;;;;;125347;1127;22439;-75
2021/01/08 03:19:17;;;;;;;32.95;23.85;;;;;;;;;;125411;1130;22509;-76
2021/01/08 03:21:45;;;;;;;28.38;21.23;;;;;;;;;;125383;1129;22448;-75
2021/01/08 03:24:13;;;;;;;30.12;20.95;;;;;;;;;;125373;1127;22449;-83
2021/01/08 03:26:41;;;;;;;31.37;22.30;;;;;;;;;;125387;1127;22451;-82
2021/01/08 03:29:09;;;;;;;30.95;22.40;;;;;;;;;;125417;1127;22894;-83
2021/01/08 03:31:37;;;;;;;34.10;23.32;;;;;;;;;;125394;1127;23467;-82
2021/01/08 03:34:06;;;;;;;30.40;21.65;;;;;;;;;;125394;1127;22490;-82
2021/01/08 03:36:34;;;;;;;38.95;27.42;;;;;;;;;;125406;1127;22448;-82
2021/01/08 03:39:03;;;;;;;36.50;26.15;;;;;;;;;;125403;1127;24566;-81
2021/01/08 03:41:31;;;;;;;33.73;27.60;;;;;;;;;;125443;1127;22818;-84
2021/01/08 03:43:59;;;;;;;38.85;27.65;;;;;;;;;;125430;1127;24319;-84
2021/01/08 03:46:27;;;;;;;34.55;26.15;;;;;;;;;;125408;1130;22443;-83
2021/01/08 03:48:55;;;;;;;38.13;26.68;;;;;;;;;;125437;1130;22453;-84
2021/01/08 03:51:23;;;;;;;36.77;27.25;;;;;;;;;;125360;1127;24565;-82
2021/01/08 03:53:51;;;;;;;35.78;26.90;;;;;;;;;;125378;1127;22440;-82
2021/01/08 03:56:20;;;;;;;42.17;29.45;;;;;;;;;;125330;1127;24562;-83
2021/01/08 03:58:48;;;;;;;40.83;32.80;;;;;;;;;;125392;1129;22446;-82
2021/01/08 04:01:16;;;;;;;36.45;28.62;;;;;;;;;;125430;1128;22506;-82
2021/01/08 04:03:45;;;;;;;37.33;28.10;;;;;;;;;;125436;1127;22501;-83
2021/01/08 04:06:13;;;;;;;37.20;27.55;;;;;;;;;;125485;1127;22406;-80
2021/01/08 04:08:41;;;;;;;41.83;29.87;;;;;;;;;;125400;1131;22463;-80
2021/01/08 04:11:09;;;;;;;37.48;28.45;;;;;;;;;;125351;1129;22441;-80
2021/01/08 04:13:37;;;;;;;40.75;30.95;;;;;;;;;;125364;1127;22440;-82
2021/01/08 04:16:05;;;;;;;41.95;31.20;;;;;;;;;;125421;1127;22544;-82
2021/01/08 04:18:33;;;;;;;37.08;28.98;;;;;;;;;;125692;1127;22653;-82
2021/01/08 04:21:01;;;;;;;37.60;26.95;;;;;;;;;;125441;1127;22475;-83
2021/01/08 04:23:29;;;;;;;40.52;28.32;;;;;;;;;;125668;1127;22457;-81
2021/01/08 04:25:57;;;;;;;37.05;27.07;;;;;;;;;;125385;1127;23227;-83
2021/01/08 04:28:25;;;;;;;46.65;31.85;;;;;;;;;;125118;1127;24770;-80
2021/01/08 04:30:53;;;;;;;47.73;31.62;;;;;;;;;;125401;1127;24307;-81
2021/01/08 04:33:22;;;;;;;51.33;32.88;;;;;;;;;;125472;1127;22458;-80
2021/01/08 04:35:53;;;;;;;60.98;36.45;;;;;;;;;;125382;1127;22447;-81
2021/01/08 04:38:21;;;;;;;59.98;36.30;;;;;;;;;;125422;1127;24316;-81
2021/01/08 04:40:49;;;;;;;60.15;37.28;;;;;;;;;;125435;1127;22447;-81
2021/01/08 04:43:18;;;;;;;60.92;38.05;;;;;;;;;;125420;1130;22443;-81
2021/01/08 04:45:46;;;;;;;66.35;40.58;;;;;;;;;;125387;1129;22457;-81
2021/01/08 04:48:15;;;;;;;65.20;39.83;;;;;;;;;;125378;1127;22462;-81
2021/01/08 04:50:44;;;;;;;68.37;38.02;;;;;;;;;;125441;1128;22504;-82
2021/01/08 04:53:12;;;;;;;72.80;39.03;;;;;;;;;;125408;1127;22544;-80
2021/01/08 04:55:40;;;;;;;67.85;41.23;;;;;;;;;;125376;1127;22450;-83
2021/01/08 04:58:10;;;;;;;66.00;42.53;;;;;;;;;;125413;1127;22438;-81
2021/01/08 05:00:38;;;;;;;60.00;38.60;;;;;;;;;;125352;1127;22524;-83
2021/01/08 05:03:08;;;;;;;49.05;33.92;;;;;;;;;;125444;1127;22542;-81
2021/01/08 05:05:36;;;;;;;45.38;32.03;;;;;;;;;;125429;1127;22460;-80
2021/01/08 05:08:11;;;;;;;44.25;31.85;;;;;;;;;;125446;1129;22437;-83
2021/01/08 05:10:39;;;;;;;38.95;28.83;;;;;;;;;;125399;1127;22466;-80
2021/01/08 05:13:07;;;;;;;33.63;26.00;;;;;;;;;;125334;1127;22451;-83
2021/01/08 05:15:35;;;;;;;35.75;27.80;;;;;;;;;;125361;1127;24246;-81
2021/01/08 05:18:04;;;;;;;37.13;26.87;;;;;;;;;;125418;1127;22597;-80
2021/01/08 05:20:32;;;;;;;37.65;28.35;;;;;;;;;;125406;1129;22457;-82
2021/01/08 05:23:00;;;;;;;35.58;27.10;;;;;;;;;;125381;1127;24568;-81
2021/01/08 05:25:28;;;;;;;38.05;28.40;;;;;;;;;;125387;1130;23352;-83
2021/01/08 05:27:56;;;;;;;39.50;28.87;;;;;;;;;;125371;1127;22463;-82
2021/01/08 05:30:26;;;;;;;41.37;30.17;;;;;;;;;;125278;1130;22833;-80
2021/01/08 05:32:59;;;;;;;39.60;29.60;;;;;;;;;;125370;1127;22447;-82
2021/01/08 05:35:32;;;;;;;46.95;33.23;;;;;;;;;;125410;1127;22442;-82
2021/01/08 05:38:05;;;;;;;47.30;34.20;;;;;;;;;;125375;1130;22445;-81
2021/01/08 05:40:38;;;;;;;50.88;34.25;;;;;;;;;;125351;1127;22453;-80
2021/01/08 05:43:06;;;;;;;51.28;35.45;;;;;;;;;;125360;1129;22439;-80
2021/01/08 05:45:35;;;;;;;57.23;36.08;;;;;;;;;;125362;1127;22526;-81
2021/01/08 05:48:05;;;;;;;54.27;34.00;;;;;;;;;;125331;1127;22462;-77
2021/01/08 05:50:33;;;;;;;49.58;32.45;;;;;;;;;;125364;1127;22541;-77
2021/01/08 05:53:09;;;;;;;52.58;34.20;;;;;;;;;;125359;1127;24143;-79
2021/01/08 05:55:40;;;;;;;49.20;34.65;;;;;;;;;;125481;1128;22448;-77
2021/01/08 05:58:21;;;;;;;47.83;33.02;;;;;;;;;;125432;1127;22486;-77
2021/01/08 06:00:56;;;;;;;50.30;36.58;;;;;;;;;;125368;1131;22444;-79
2021/01/08 06:03:25;;;;;;;48.80;36.38;;;;;;;;;;125406;1127;22465;-76
2021/01/08 06:05:55;;;;;;;48.55;35.80;;;;;;;;;;125427;1127;22509;-77
2021/01/08 06:08:30;;;;;;;50.60;36.80;;;;;;;;;;125386;1127;22443;-77
2021/01/08 06:11:00;;;;;;;74.95;49.93;;;;;;;;;;125286;1130;22463;-77
2021/01/08 06:13:34;;;;;;;67.12;48.35;;;;;;;;;;125366;1127;22545;-77
2021/01/08 06:16:03;;;;;;;68.87;47.13;;;;;;;;;;125411;1127;24627;-78
2021/01/08 06:18:37;;;;;;;72.32;50.50;;;;;;;;;;125329;1128;22441;-77
2021/01/08 06:21:09;;;;;;;65.95;46.18;;;;;;;;;;125327;1127;22500;-78
2021/01/08 06:23:40;;;;;;;69.85;56.35;;;;;;;;;;125420;1127;22454;-78
2021/01/08 06:26:18;;;;;;;67.03;57.15;;;;;;;;;;125400;1127;22920;-77
2021/01/08 06:28:50;;;;;;;60.90;51.45;;;;;;;;;;125436;1127;22947;-77
2021/01/08 06:31:21;;;;;;;60.98;52.23;;;;;;;;;;125339;1127;22447;-77
2021/01/08 06:33:58;;;;;;;54.13;42.88;;;;;;;;;;125420;1130;22509;-78
2021/01/08 06:36:28;;;;;;;61.50;46.23;;;;;;;;;;126181;1127;24377;-85
2021/01/08 06:39:06;;;;;;;60.03;45.58;;;;;;;;;;126511;1130;22419;-87
2021/01/08 06:41:34;;;;;;;85.20;52.08;;;;;;;;;;126287;1128;22491;-81
2021/01/08 06:44:04;;;;;;;84.83;52.48;;;;;;;;;;125409;1127;22557;-83
2021/01/08 06:46:37;;;;;;;78.22;52.38;;;;;;;;;;125797;1127;22441;-85
2021/01/08 06:49:11;;;;;;;80.05;51.35;;;;;;;;;;126008;1128;22450;-83
2021/01/08 06:51:41;;;;;;;72.05;49.20;;;;;;;;;;126189;1127;25036;-81
2021/01/08 06:54:11;;;;;;;68.78;50.00;;;;;;;;;;125723;1127;22481;-83
2021/01/08 06:56:43;;;;;;;89.42;55.33;;;;;;;;;;126206;1128;22422;-85
2021/01/08 06:59:18;;;;;;;80.40;55.05;;;;;;;;;;126116;1127;22537;-87
2021/01/08 07:02:07;;;;;;;191.82;143.85;;;;;;;;;;126177;1127;22522;-78
2021/01/08 07:04:38;;;;;;;159.65;120.10;;;;;;;;;;125344;1130;22441;-76
2021/01/08 07:07:28;;;;;;;146.43;106.10;;;;;;;;;;125387;1127;23716;-77
2021/01/08 07:09:56;;;;;;;122.37;87.62;;;;;;;;;;125362;1127;22454;-76
2021/01/08 07:12:25;;;;;;;97.22;71.53;;;;;;;;;;125412;1127;22443;-76
2021/01/08 07:14:55;;;;;;;90.42;63.15;;;;;;;;;;125454;1127;22444;-76
2021/01/08 07:17:31;;;;;;;91.57;63.98;;;;;;;;;;125362;1127;22538;-76
2021/01/08 07:20:01;;;;;;;98.87;71.57;;;;;;;;;;125411;1127;22496;-76
2021/01/08 07:22:40;;;;;;;105.05;81.02;;;;;;;;;;125370;1128;22529;-76
2021/01/08 07:25:13;;;;;;;109.80;79.42;;;;;;;;;;125425;1127;22539;-77
2021/01/08 07:27:42;;;;;;;114.88;74.27;;;;;;;;;;125395;1130;22443;-76
2021/01/08 07:30:13;;;;;;;102.05;69.77;;;;;;;;;;125385;1127;22439;-76
2021/01/08 07:32:49;;;;;;;103.83;73.30;;;;;;;;;;125416;1127;22437;-76
2021/01/08 07:35:27;;;;;;;109.30;70.42;;;;;;;;;;125358;1127;22436;-76
2021/01/08 07:38:15;;;;;;;111.97;77.60;;;;;;;;;;125390;1127;22459;-77
2021/01/08 07:40:49;;;;;;;139.97;100.07;;;;;;;;;;125378;1127;22447;-76
2021/01/08 07:43:17;;;;;;;123.67;87.67;;;;;;;;;;125384;1127;25065;-76
2021/01/08 07:45:57;;;;;;;136.32;88.27;;;;;;;;;;125372;1131;22541;-77
2021/01/08 07:48:26;;;;;;;196.98;115.82;;;;;;;;;;125406;1127;22443;-76
2021/01/08 07:50:56;;;;;;;169.68;104.03;;;;;;;;;;125431;1127;22456;-77
2021/01/08 07:53:43;;;;;;;225.28;148.50;;;;;;;;;;125396;1127;22443;-77
2021/01/08 07:56:22;;;;;;;244.18;161.45;;;;;;;;;;125391;1126;22448;-76
2021/01/08 07:58:54;;;;;;;231.25;145.72;;;;;;;;;;125419;1127;22438;-78
2021/01/08 08:01:22;;;;;;;233.05;142.25;;;;;;;;;;125411;1127;22656;-81
2021/01/08 08:03:59;;;;;;;218.63;124.58;;;;;;;;;;125621;1128;22453;-80
2021/01/08 08:06:29;;;;;;;204.05;125.35;;;;;;;;;;125594;1131;22445;-80
2021/01/08 08:08:59;;;;;;;153.95;101.20;;;;;;;;;;125752;1127;22525;-82
2021/01/08 08:11:30;;;;;;;127.27;85.83;;;;;;;;;;125655;1127;22495;-83
2021/01/08 08:13:58;;;;;;;140.32;89.60;;;;;;;;;;125519;1127;23236;-80
2021/01/08 08:16:33;;;;;;;142.00;89.60;;;;;;;;;;125591;1126;23301;-82
2021/01/08 08:26:49;;;;;;;146.45;97.90;;;;;;;10.68;72.79;100079.98;125303;1121;119710;-80
2021/01/08 08:29:18;;;;;;;122.58;89.72;;;;;;;8.96;66.37;100076.98;125402;1126;46445;-76
2021/01/08 08:31:50;;;;;;;134.65;95.62;;;;;;;7.34;65.26;100075.36;125147;1130;48037;-77
2021/01/08 08:34:28;;;;;;;126.95;87.90;;;;;;;6.11;65.69;100080.25;125082;1126;43176;-77
2021/01/08 08:37:11;;;;;;;149.90;99.47;;;;;;;5.16;66.72;100082.97;125488;1127;38167;-75
2021/01/08 08:39:39;;;;;;;173.97;104.20;;;;;;;4.43;68.11;100085.98;125429;1129;22449;-75
2021/01/08 08:42:11;;;;;;;143.43;100.82;;;;;;;3.84;68.38;100085.94;125193;1127;22463;-76
2021/01/08 08:44:44;;;;;;;174.27;117.75;;;;;;;3.51;69.72;100082.60;125476;1127;24373;-73
2021/01/08 08:47:13;;;;;;;187.03;116.75;;;;;;;3.16;69.84;100081.13;125550;1129;22464;-73
2021/01/08 08:49:45;;;;;;;154.75;96.67;;;;;;;2.83;69.59;100082.11;125178;1132;22463;-74
2021/01/08 08:52:27;;;;;;;189.03;114.75;;;;;;;2.62;70.35;100082.07;125444;1127;22447;-74
2021/01/08 08:54:56;;;;;;;145.60;95.67;;;;;;;2.36;71.09;100084.14;125438;1127;23212;-73
2021/01/08 08:57:24;;;;;;;126.22;85.55;;;;;;;2.12;70.89;100092.13;125341;1130;22464;-73
2021/01/08 08:59:53;;;;;;;132.25;90.62;;;;;;;1.94;71.23;100093.56;125383;1127;25051;-74
2021/01/08 09:02:27;;;;;;;114.08;77.55;;;;;;;1.79;71.55;100092.95;125352;1130;22451;-74
2021/01/08 09:05:04;;;;;;;147.87;91.10;;;;;;;1.68;72.21;100090.36;125411;1127;24643;-74
2021/01/08 09:07:38;;;;;;;131.25;86.47;;;;;;;1.64;71.87;100092.37;124968;1127;22548;-74
2021/01/08 09:10:23;;;;;;;119.82;77.85;;;;;;;1.61;72.98;100095.20;125458;1127;22453;-75
2021/01/08 09:13:10;;;;;;;114.55;80.32;;;;;;;1.58;72.17;100092.83;125367;1130;22526;-74
2021/01/08 09:15:53;;;;;;;101.07;71.10;;;;;;;1.57;72.89;100092.00;125360;1127;22451;-74
2021/01/08 09:18:49;;;;;;;107.30;75.15;;;;;;;1.61;72.97;100084.78;125374;1130;22463;-75
2021/01/08 09:21:31;;;;;;;96.65;66.80;;;;;;;1.66;73.13;100090.45;125001;1130;22446;-74
2021/01/08 09:24:03;;;;;;;104.05;76.20;;;;;;;1.70;72.61;100085.84;124990;1127;22464;-74
2021/01/08 09:26:33;;;;;;;143.68;92.33;;;;;;;1.73;72.40;100081.22;125087;1129;22513;-74
2021/01/08 09:29:01;;;;;;;154.07;90.05;;;;;;;1.80;73.29;100092.00;125014;1127;24387;-74
2021/01/08 09:31:47;;;;;;;100.65;69.32;;;;;;;1.81;72.50;100089.30;125002;1130;22444;-74
2021/01/08 09:34:19;;;;;;;102.87;68.80;;;;;;;1.82;72.28;100084.91;125298;1127;22446;-74
2021/01/08 09:36:48;;;;;;;98.35;65.25;;;;;;;1.82;72.38;100079.70;124989;1130;22466;-74
2021/01/08 09:39:19;;;;;;;94.67;62.83;;;;;;;1.85;72.47;100075.08;125374;1129;22355;-75
2021/01/08 09:41:58;;;;;;;123.87;77.37;;;;;;;1.89;72.05;100076.49;125417;1128;22451;-74
2021/01/08 09:44:35;;;;;;;111.30;71.77;;;;;;;1.92;72.04;100072.01;125390;1129;22453;-74
2021/01/08 09:47:06;;;;;;;99.42;66.70;;;;;;;1.96;71.57;100076.84;125338;1128;22466;-74
2021/01/08 09:49:42;;;;;;;86.72;61.35;;;;;;;1.95;71.81;100069.98;125084;1129;22468;-75
2021/01/08 09:52:12;;;;;;;85.85;60.40;;;;;;;1.96;71.23;100076.02;125260;1129;22457;-75
2021/01/08 09:54:48;;;;;;;92.50;63.78;;;;;;;1.94;71.45;100070.13;124973;1129;22451;-75
2021/01/08 09:57:28;;;;;;;80.85;53.48;;;;;;;1.92;71.76;100062.41;125372;1129;22451;-75
2021/01/08 09:59:59;;;;;;;91.30;63.00;;;;;;;1.93;71.26;100065.84;125378;1128;22460;-74
2021/01/08 10:02:41;;;;;;;96.47;66.92;;;;;;;1.98;71.39;100071.53;125388;1128;22446;-74
2021/01/08 10:05:20;;;;;;;108.95;73.95;;;;;;;2.02;71.23;100071.16;125020;1130;22442;-75
2021/01/08 10:07:49;;;;;;;105.65;66.40;;;;;;;2.08;71.27;100069.87;125349;1130;22451;-75
2021/01/08 10:10:27;;;;;;;95.45;65.78;;;;;;;2.15;70.99;100059.80;125001;1130;22501;-75
2021/01/08 10:12:58;;;;;;;95.90;68.02;;;;;;;2.23;71.03;100060.86;125358;1128;23226;-75
2021/01/08 10:15:36;;;;;;;90.67;64.35;;;;;;;2.28;70.39;100061.30;124971;1130;22551;-75
2021/01/08 10:18:24;;;;;;;91.08;64.27;;;;;;;2.31;70.92;100065.45;125433;1129;22448;-75
2021/01/08 10:20:53;;;;;;;80.77;57.60;;;;;;;2.29;70.78;100068.16;125381;1131;22463;-75
2021/01/08 10:23:25;;;;;;;87.00;65.47;;;;;;;2.31;70.06;100065.45;125405;1129;22543;-75
2021/01/08 10:26:10;;;;;;;81.15;61.95;;;;;;;2.30;69.91;100062.02;125360;1129;22548;-77
2021/01/08 10:28:56;;;;;;;95.65;66.05;;;;;;;2.32;70.66;100064.49;125435;1129;25357;-78
2021/01/08 10:31:25;;;;;;;88.30;61.15;;;;;;;2.40;70.46;100058.66;125019;1129;24564;-78
2021/01/08 10:33:59;;;;;;;88.55;66.47;;;;;;;2.51;70.47;100056.04;125004;1130;22450;-78
2021/01/08 10:36:27;;;;;;;85.95;64.30;;;;;;;2.57;70.18;100047.73;125073;1128;22450;-78
2021/01/08 10:38:55;;;;;;;83.50;65.77;;;;;;;2.66;69.69;100044.35;125389;1129;23327;-79
2021/01/08 10:41:24;;;;;;;93.42;72.27;;;;;;;2.76;70.53;100041.83;125344;1129;22446;-78
2021/01/08 10:43:53;;;;;;;100.05;75.65;;;;;;;2.89;69.88;100037.26;125412;1127;22457;-77
2021/01/08 10:46:21;;;;;;;96.35;69.67;;;;;;;3.02;70.23;100037.08;125371;1129;22495;-77
2021/01/08 10:48:50;;;;;;;106.60;74.75;;;;;;;3.19;69.92;100038.29;124998;1130;22508;-77
2021/01/08 10:51:19;;;;;;;88.07;67.53;;;;;;;3.24;68.63;100046.58;124998;1132;22453;-77
2021/01/08 10:53:47;;;;;;;78.02;62.10;;;;;;;3.20;68.43;100043.40;125060;1129;22502;-79
2021/01/08 10:56:16;;;;;;;79.15;60.48;;;;;;;3.24;68.81;100043.97;125016;1129;22462;-78
2021/01/08 10:58:44;;;;;;;78.30;61.50;;;;;;;3.22;67.84;100040.64;125061;1129;22445;-77
2021/01/08 11:01:12;;;;;;;85.30;63.23;;;;;;;3.17;67.21;100035.00;125312;1127;22453;-77
2021/01/08 11:03:40;;;;;;;103.07;72.85;;;;;;;3.14;67.47;100037.86;125031;1127;24577;-79
2021/01/08 11:06:21;;;;;;;95.85;72.22;;;;;;;3.06;67.64;100041.09;125046;1130;22466;-79
2021/01/08 11:08:49;;;;;;;91.23;68.60;;;;;;;2.97;67.57;100041.88;125037;1127;24561;-77
2021/01/08 11:11:17;;;;;;;91.82;72.67;;;;;;;3.01;68.44;100041.48;125409;1127;24555;-78
2021/01/08 11:13:46;;;;;;;109.22;78.52;;;;;;;3.15;68.71;100040.33;125393;1130;24041;-79
2021/01/08 11:16:14;;;;;;;90.75;70.67;;;;;;;3.31;68.25;100039.88;125405;1127;22437;-79
2021/01/08 11:18:43;;;;;;;94.55;72.97;;;;;;;3.47;68.44;100031.59;125410;1129;23241;-79
2021/01/08 11:21:11;;;;;;;75.65;62.62;;;;;;;3.61;67.79;100035.64;124998;1130;22547;-78
2021/01/08 11:23:39;;;;;;;66.20;54.58;;;;;;;3.65;67.69;100039.64;125379;1127;22440;-78
2021/01/08 11:26:07;;;;;;;63.83;53.65;;;;;;;3.70;66.77;100025.23;125310;1129;24386;-78
2021/01/08 11:28:37;;;;;;;63.30;52.23;;;;;;;3.68;66.39;100032.36;125308;1129;22446;-79
2021/01/08 11:31:06;;;;;;;72.85;57.90;;;;;;;3.73;66.65;100034.57;125385;1130;22458;-78
2021/01/08 11:33:34;;;;;;;69.77;57.30;;;;;;;3.70;66.47;100035.69;125407;1129;22444;-79
2021/01/08 11:36:02;;;;;;;72.15;59.55;;;;;;;3.72;66.81;100035.55;125019;1128;24386;-78
2021/01/08 11:38:30;;;;;;;63.63;51.33;;;;;;;3.73;65.85;100031.95;125363;1127;22448;-78
2021/01/08 11:41:00;;;;;;;79.62;59.33;;;;;;;3.78;66.43;100029.80;125342;1129;22413;-78
2021/01/08 11:43:28;;;;;;;77.22;60.08;;;;;;;3.73;65.12;100030.20;125379;1127;22533;-80
2021/01/08 11:45:56;;;;;;;80.67;59.80;;;;;;;3.72;65.72;100028.52;125333;1130;22511;-77
2021/01/08 11:48:24;;;;;;;73.72;58.10;;;;;;;3.71;65.34;100029.49;125396;1127;24268;-77
2021/01/08 11:50:53;;;;;;;71.00;58.60;;;;;;;3.70;65.13;100025.23;125320;1129;22501;-78
2021/01/08 11:53:21;;;;;;;69.53;55.90;;;;;;;3.64;64.81;100038.81;125052;1130;23214;-78
2021/01/08 11:55:49;;;;;;;65.92;54.70;;;;;;;3.53;65.03;100020.60;125124;1127;22463;-77
2021/01/08 11:58:17;;;;;;;78.85;57.62;;;;;;;3.48;64.91;100018.39;125320;1130;22547;-78
2021/01/08 12:00:46;;;;;;;73.17;60.73;;;;;;;3.44;65.59;100026.63;125441;1127;24252;-77
2021/01/08 12:03:15;;;;;;;67.50;52.38;;;;;;;3.40;65.09;100033.05;125467;1127;22544;-77
2021/01/08 12:05:44;;;;;;;71.87;58.50;;;;;;;3.41;66.09;100025.09;125362;1129;22431;-77
2021/01/08 12:08:12;;;;;;;65.72;50.10;;;;;;;3.43;64.95;100025.80;125365;1129;22469;-78
2021/01/08 12:10:40;;;;;;;78.87;64.03;;;;;;;3.39;64.58;100024.39;125002;1129;22449;-78
2021/01/08 12:13:08;;;;;;;69.07;54.27;;;;;;;3.36;64.86;100026.43;125352;1129;22463;-79
2021/01/08 12:15:36;;;;;;;64.27;51.90;;;;;;;3.33;64.76;100024.08;125377;1130;22466;-78
2021/01/08 12:18:05;;;;;;;58.13;48.33;;;;;;;3.32;64.80;100030.27;125410;1127;25170;-81
2021/01/08 12:20:33;;;;;;;70.30;52.25;;;;;;;3.30;65.44;100028.62;125827;1126;101953;-78
2021/01/08 12:23:05;;;;;;;69.67;53.42;;;;;;;3.30;65.24;100028.62;125372;1127;22475;-78
2021/01/08 12:25:43;;;;;;;69.87;52.75;;;;;;;3.33;65.71;100037.13;125354;1127;22541;-78
2021/01/08 12:28:12;;;;;;;63.30;46.98;;;;;;;3.32;65.16;100035.48;125394;1127;22544;-78
2021/01/08 12:30:45;;;;;;;58.13;45.25;;;;;;;3.30;65.37;100033.84;125271;1127;22505;-79
2021/01/08 12:33:15;;;;;;;63.20;51.55;;;;;;;3.28;64.68;100035.73;125127;1128;22936;-79
2021/01/08 12:35:43;;;;;;;66.85;53.98;;;;;;;3.28;64.95;100038.35;125457;1128;22474;-78
2021/01/08 12:38:11;;;;;;;76.70;59.03;;;;;;;3.29;65.12;100033.95;125376;1130;22441;-78
2021/01/08 12:40:40;;;;;;;79.62;63.83;;;;;;;3.32;64.66;100038.09;125286;1126;38180;-79
2021/01/08 12:43:22;;;;;;;74.87;56.63;;;;;;;3.28;64.30;100034.92;125351;1129;22437;-79
2021/01/08 12:45:51;;;;;;;87.88;61.70;;;;;;;3.21;64.80;100029.38;125049;1130;22529;-78
2021/01/08 12:48:20;;;;;;;75.75;59.77;;;;;;;3.17;64.50;100035.00;125377;1129;22899;-78
2021/01/08 12:50:49;;;;;;;78.25;60.35;;;;;;;3.14;64.87;100033.47;125158;1129;22494;-78
2021/01/08 12:53:17;;;;;;;71.50;54.95;;;;;;;3.13;64.96;100030.97;125340;1131;22573;-79
2021/01/08 12:55:49;;;;;;;70.28;54.63;;;;;;;3.11;65.57;100035.50;125061;1130;22541;-79
2021/01/08 12:58:19;;;;;;;67.27;53.17;;;;;;;3.01;65.35;100038.05;125356;1130;22444;-80
2021/01/08 13:00:51;;;;;;;70.05;53.80;;;;;;;2.92;65.39;100044.84;125377;1127;22457;-79
2021/01/08 13:03:19;;;;;;;52.70;42.88;;;;;;;2.80;65.39;100040.64;125399;1129;22440;-77
2021/01/08 13:06:05;;;;;;;51.08;41.88;;;;;;;2.67;65.28;100046.03;125362;1127;22436;-78
2021/01/08 13:08:33;;;;;;;60.98;47.62;;;;;;;2.62;65.49;100042.95;125313;1127;24642;-78
2021/01/08 13:11:02;;;;;;;79.65;56.85;;;;;;;2.62;66.00;100047.34;125290;1129;22459;-81
2021/01/08 13:13:31;;;;;;;60.43;45.12;;;;;;;2.63;65.94;100044.59;125382;1127;22440;-80
2021/01/08 13:15:59;;;;;;;54.40;41.63;;;;;;;2.57;66.35;100045.13;125339;1130;22440;-81